createdAt,value
2022-11-12T00:01:43.008Z,9.25
2022-11-12T00:04:28.800Z,9.24
2022-11-12T00:07:14.510Z,9.26
2022-11-12T00:10:00.266Z,9.20
2022-11-12T00:12:46.150Z,9.26
2022-11-12T00:15:32.075Z,9.27
2022-11-12T00:18:18.245Z,9.26
2022-11-12T00:21:04.120Z,9.23
2022-11-12T00:23:49.871Z,9.28
2022-11-12T00:26:35.853Z,9.31
2022-11-12T00:29:21.588Z,9.30
2022-11-12T00:32:08.018Z,9.31
2022-11-12T00:34:54.262Z,9.31
2022-11-12T00:37:40.100Z,9.29
2022-11-12T00:40:26.770Z,9.32
2022-11-12T00:43:12.664Z,9.32
2022-11-12T00:45:58.377Z,9.32
2022-11-12T00:48:44.246Z,9.31
2022-11-12T00:51:30.318Z,9.29
2022-11-12T00:54:16.428Z,9.27
2022-11-12T00:57:02.231Z,9.28
2022-11-12T00:59:48.348Z,9.28
2022-11-12T01:02:42.323Z,9.23
2022-11-12T01:05:29.982Z,9.20
2022-11-12T01:08:16.039Z,9.25
2022-11-12T01:11:10.220Z,9.15
2022-11-12T01:14:05.071Z,9.23
2022-11-12T01:16:51.059Z,9.19
2022-11-12T01:19:36.875Z,9.22
2022-11-12T01:22:22.681Z,9.21
2022-11-12T01:25:08.865Z,9.20
2022-11-12T01:27:55.041Z,9.20
2022-11-12T01:30:40.838Z,9.20
2022-11-12T01:33:26.652Z,9.21
2022-11-12T01:36:13.605Z,9.23
2022-11-12T01:38:59.406Z,9.24
2022-11-12T01:41:45.372Z,9.25
2022-11-12T01:44:32.745Z,9.26
2022-11-12T01:47:25.488Z,9.23
2022-11-12T01:50:26.227Z,9.26
2022-11-12T01:53:14.139Z,9.26
2022-11-12T01:56:01.427Z,9.30
2022-11-12T01:58:49.421Z,9.29
2022-11-12T02:01:37.230Z,9.29
2022-11-12T02:04:24.009Z,9.26
2022-11-12T02:07:11.045Z,9.30
2022-11-12T02:09:58.214Z,9.30
2022-11-12T02:13:03.665Z,9.31
2022-11-12T02:15:49.748Z,9.31
2022-11-12T02:18:35.899Z,9.33
2022-11-12T02:21:23.585Z,9.33
2022-11-12T02:24:12.371Z,9.32
2022-11-12T02:26:59.128Z,9.32
2022-11-12T02:29:48.064Z,9.32
2022-11-12T02:32:33.935Z,9.31
2022-11-12T02:35:19.778Z,9.33
2022-11-12T02:38:06.866Z,9.33
2022-11-12T02:40:53.309Z,9.32
2022-11-12T02:43:39.888Z,9.30
2022-11-12T02:46:25.802Z,9.28
2022-11-12T02:49:11.695Z,9.30
2022-11-12T02:51:57.634Z,9.30
2022-11-12T02:54:43.311Z,9.29
2022-11-12T02:57:30.564Z,9.28
2022-11-12T03:00:16.929Z,9.28
2022-11-12T03:03:02.878Z,9.27
2022-11-12T03:06:00.820Z,9.29
2022-11-12T03:08:46.967Z,9.27
2022-11-12T03:11:32.840Z,9.25
2022-11-12T03:14:18.772Z,9.30
2022-11-12T03:17:04.978Z,9.30
2022-11-12T03:19:50.649Z,9.33
2022-11-12T03:22:37.441Z,9.32
2022-11-12T03:25:24.273Z,9.31
2022-11-12T03:28:12.245Z,9.32
2022-11-12T03:31:00.085Z,9.33
2022-11-12T03:33:46.097Z,9.32
2022-11-12T03:36:32.134Z,9.32
2022-11-12T03:39:18.440Z,9.29
2022-11-12T03:42:04.621Z,9.33
2022-11-12T03:44:50.690Z,9.33
2022-11-12T03:47:36.807Z,9.36
2022-11-12T03:50:26.511Z,9.36
2022-11-12T03:53:12.529Z,9.37
2022-11-12T03:55:58.697Z,9.34
2022-11-12T03:58:44.581Z,9.37
2022-11-12T04:01:30.603Z,9.37
2022-11-12T04:04:16.238Z,9.36
2022-11-12T04:07:20.304Z,9.36
2022-11-12T04:10:06.365Z,9.29
2022-11-12T04:13:10.743Z,9.33
2022-11-12T04:16:21.025Z,9.35
2022-11-12T04:19:26.050Z,9.37
2022-11-12T04:22:12.267Z,9.32
2022-11-12T04:25:16.362Z,9.30
2022-11-12T04:28:02.202Z,9.39
2022-11-12T04:30:48.143Z,9.39
2022-11-12T04:33:34.308Z,9.40
2022-11-12T04:36:20.539Z,9.39
2022-11-12T04:39:06.542Z,9.35
2022-11-12T04:42:11.260Z,9.35
2022-11-12T04:44:57.615Z,9.40
2022-11-12T04:47:46.935Z,9.35
2022-11-12T04:50:32.773Z,9.37
2022-11-12T04:53:19.101Z,9.43
2022-11-12T04:56:05.123Z,9.25
2022-11-12T04:58:51.279Z,9.41
2022-11-12T05:01:37.247Z,9.42
2022-11-12T05:04:23.161Z,9.42
2022-11-12T05:07:09.560Z,9.38
2022-11-12T05:09:55.371Z,9.41
2022-11-12T05:12:41.058Z,9.43
2022-11-12T05:15:26.741Z,9.43
2022-11-12T05:18:12.869Z,9.43
2022-11-12T05:21:18.799Z,9.43
2022-11-12T05:24:04.887Z,9.44
2022-11-12T05:26:50.964Z,9.45
2022-11-12T05:29:37.319Z,9.46
2022-11-12T05:32:23.114Z,9.45
2022-11-12T05:35:09.118Z,9.44
2022-11-12T05:37:55.034Z,9.43
2022-11-12T05:40:45.492Z,9.44
2022-11-12T05:43:31.239Z,9.46
2022-11-12T05:46:18.385Z,9.44
2022-11-12T05:49:04.466Z,9.41
2022-11-12T05:51:51.774Z,9.40
2022-11-12T05:54:37.365Z,9.45
2022-11-12T05:57:23.364Z,9.43
2022-11-12T06:00:09.948Z,9.42
2022-11-12T06:02:58.941Z,9.40
2022-11-12T06:05:44.966Z,9.37
2022-11-12T06:08:30.737Z,9.33
2022-11-12T06:11:16.509Z,9.35
2022-11-12T06:14:04.042Z,9.35
2022-11-12T06:16:49.904Z,9.31
2022-11-12T06:19:35.800Z,9.29
2022-11-12T06:22:21.761Z,9.27
2022-11-12T06:25:07.977Z,9.27
2022-11-12T06:27:53.810Z,9.24
2022-11-12T06:30:39.551Z,9.25
2022-11-12T06:33:25.411Z,9.23
2022-11-12T06:36:13.270Z,9.17
2022-11-12T06:38:59.426Z,9.24
2022-11-12T06:41:45.422Z,9.23
2022-11-12T06:44:31.290Z,9.22
2022-11-12T06:47:17.624Z,9.24
2022-11-12T06:50:03.702Z,9.25
2022-11-12T06:52:49.601Z,9.27
2022-11-12T06:55:35.725Z,9.28
2022-11-12T06:58:21.743Z,9.28
2022-11-12T07:01:12.070Z,9.29
2022-11-12T07:03:58.209Z,9.30
2022-11-12T07:06:44.462Z,9.30
2022-11-12T07:09:30.692Z,9.32
2022-11-12T07:12:16.864Z,9.33
2022-11-12T07:15:02.874Z,9.32
2022-11-12T07:17:48.829Z,9.38
2022-11-12T07:20:35.394Z,9.41
2022-11-12T07:23:21.088Z,9.43
2022-11-12T07:26:22.014Z,9.40
2022-11-12T07:29:07.881Z,9.46
2022-11-12T07:31:53.983Z,9.45
2022-11-12T07:34:39.829Z,9.49
2022-11-12T07:37:25.669Z,9.49
2022-11-12T07:40:12.064Z,9.37
2022-11-12T07:42:59.510Z,9.57
2022-11-12T07:45:45.450Z,9.50
2022-11-12T07:48:32.479Z,9.62
2022-11-12T07:51:26.283Z,9.62
2022-11-12T07:54:12.164Z,9.60
2022-11-12T07:56:58.009Z,9.60
2022-11-12T07:59:46.293Z,9.62
2022-11-12T08:02:32.610Z,9.61
2022-11-12T08:05:21.362Z,9.65
2022-11-12T08:08:07.563Z,9.66
2022-11-12T08:10:57.396Z,9.67
2022-11-12T08:13:43.087Z,9.68
2022-11-12T08:16:28.858Z,9.69
2022-11-12T08:19:14.850Z,9.70
2022-11-12T08:22:00.831Z,9.69
2022-11-12T08:24:46.910Z,9.73
2022-11-12T08:27:32.598Z,9.76
2022-11-12T08:30:18.448Z,9.79
2022-11-12T08:33:06.327Z,9.79
2022-11-12T08:35:52.370Z,9.79
2022-11-12T08:38:39.350Z,9.80
2022-11-12T08:41:25.401Z,9.80
2022-11-12T08:44:11.239Z,9.77
2022-11-12T08:46:57.151Z,9.85
2022-11-12T08:49:47.802Z,9.88
2022-11-12T08:52:34.396Z,9.89
2022-11-12T08:55:20.288Z,9.93
2022-11-12T08:58:06.689Z,9.93
2022-11-12T09:00:53.490Z,9.97
2022-11-12T09:03:39.170Z,9.96
2022-11-12T09:06:25.134Z,10.01
2022-11-12T09:09:12.677Z,10.04
2022-11-12T09:11:58.739Z,10.05
2022-11-12T09:14:44.628Z,10.09
2022-11-12T09:17:31.325Z,10.09
2022-11-12T09:20:17.412Z,10.11
2022-11-12T09:23:07.635Z,10.11
2022-11-12T09:25:56.121Z,10.13
2022-11-12T09:28:42.031Z,10.14
2022-11-12T09:31:28.371Z,10.14
2022-11-12T09:34:14.633Z,10.15
2022-11-12T09:37:00.734Z,10.13
2022-11-12T09:39:46.729Z,10.17
2022-11-12T09:42:36.583Z,10.23
2022-11-12T09:45:32.967Z,10.27
2022-11-12T09:48:27.699Z,10.27
2022-11-12T09:51:19.029Z,10.31
2022-11-12T09:54:20.098Z,10.32
2022-11-12T09:57:10.260Z,10.36
2022-11-12T09:59:57.311Z,10.40
2022-11-12T10:03:04.911Z,10.39
2022-11-12T10:06:10.646Z,10.40
2022-11-12T10:09:12.476Z,10.46
2022-11-12T10:12:33.310Z,10.49
2022-11-12T10:15:57.242Z,10.49
2022-11-12T10:19:19.497Z,10.50
2022-11-12T10:22:13.030Z,10.55
2022-11-12T10:25:10.020Z,10.56
2022-11-12T10:27:56.726Z,10.59
2022-11-12T10:30:43.917Z,10.59
2022-11-12T10:33:31.530Z,10.58
2022-11-12T10:36:36.305Z,10.60
2022-11-12T10:39:37.591Z,10.62
2022-11-12T10:42:24.150Z,10.59
2022-11-12T10:45:28.724Z,10.63
2022-11-12T10:48:40.842Z,10.65
2022-11-12T10:51:36.061Z,10.67
2022-11-12T10:54:27.920Z,10.70
2022-11-12T10:57:25.650Z,10.74
2022-11-12T11:00:14.979Z,10.74
2022-11-12T11:03:05.258Z,10.73
2022-11-12T11:05:55.902Z,10.74
2022-11-12T11:08:47.335Z,10.78
2022-11-12T11:11:32.982Z,10.78
2022-11-12T11:14:28.752Z,10.79
2022-11-12T11:17:18.824Z,10.80
2022-11-12T11:20:15.199Z,10.79
2022-11-12T11:23:11.224Z,10.75
2022-11-12T11:26:07.467Z,10.77
2022-11-12T11:29:14.281Z,10.77
2022-11-12T11:32:09.168Z,10.77
2022-11-12T11:35:18.574Z,10.84
2022-11-12T11:38:22.604Z,10.86
2022-11-12T11:41:36.197Z,10.89
2022-11-12T11:44:51.209Z,10.90
2022-11-12T11:48:05.745Z,10.89
2022-11-12T11:51:24.794Z,10.89
2022-11-12T11:54:35.524Z,10.88
2022-11-12T11:57:30.469Z,10.90
2022-11-12T12:00:22.403Z,10.91
2022-11-12T12:03:40.676Z,10.95
2022-11-12T12:06:37.256Z,10.96
2022-11-12T12:09:35.494Z,10.97
2022-11-12T12:12:31.155Z,10.98
2022-11-12T12:15:47.883Z,10.98
2022-11-12T12:18:52.674Z,10.99
2022-11-12T12:21:43.113Z,11.01
2022-11-12T12:24:43.694Z,10.98
2022-11-12T12:27:37.643Z,10.99
2022-11-12T12:30:25.924Z,11.02
2022-11-12T12:33:38.224Z,10.97
2022-11-12T12:36:35.142Z,10.94
2022-11-12T12:39:48.242Z,10.97
2022-11-12T12:43:20.723Z,10.95
2022-11-12T12:46:07.914Z,10.94
2022-11-12T12:48:55.767Z,10.95
2022-11-12T12:51:41.953Z,10.96
2022-11-12T12:54:39.798Z,10.96
2022-11-12T12:57:40.190Z,10.96
2022-11-12T13:00:32.585Z,10.92
2022-11-12T13:03:43.105Z,10.95
2022-11-12T13:06:31.476Z,10.94
2022-11-12T13:09:17.120Z,10.99
2022-11-12T13:12:05.946Z,11.00
2022-11-12T13:14:54.620Z,11.02
2022-11-12T13:17:46.322Z,11.05
2022-11-12T13:20:34.884Z,11.08
2022-11-12T13:24:07.577Z,11.07
2022-11-12T13:27:00.687Z,11.08
2022-11-12T13:29:49.220Z,11.08
2022-11-12T13:32:50.136Z,11.07
2022-11-12T13:35:38.754Z,11.07
2022-11-12T13:38:24.982Z,11.06
2022-11-12T13:41:41.837Z,10.99
2022-11-12T13:44:29.328Z,10.99
2022-11-12T13:47:21.869Z,10.97
2022-11-12T13:50:11.133Z,10.96
2022-11-12T13:52:57.364Z,10.96
2022-11-12T13:55:51.688Z,10.94
2022-11-12T13:58:40.136Z,10.87
2022-11-12T14:01:26.390Z,10.94
2022-11-12T14:04:18.848Z,10.92
2022-11-12T14:07:36.525Z,10.90
2022-11-12T14:10:40.057Z,10.91
2022-11-12T14:13:43.433Z,10.92
2022-11-12T14:16:41.252Z,10.91
2022-11-12T14:19:27.002Z,10.91
2022-11-12T14:22:17.002Z,10.91
2022-11-12T14:25:04.128Z,10.86
2022-11-12T14:27:52.658Z,10.88
2022-11-12T14:30:44.964Z,10.86
2022-11-12T14:33:32.693Z,10.84
2022-11-12T14:36:19.495Z,10.86
2022-11-12T14:39:07.075Z,10.81
2022-11-12T14:41:54.008Z,10.84
2022-11-12T14:44:40.576Z,10.85
2022-11-12T14:47:28.087Z,10.82
2022-11-12T14:50:26.627Z,10.80
2022-11-12T14:53:41.657Z,10.78
2022-11-12T14:56:45.337Z,10.80
2022-11-12T14:59:32.477Z,10.79
2022-11-12T15:02:37.620Z,10.78
2022-11-12T15:05:33.446Z,10.77
2022-11-12T15:08:30.346Z,10.77
2022-11-12T15:11:31.797Z,10.77
2022-11-12T15:14:24.938Z,10.79
2022-11-12T15:17:33.096Z,10.77
2022-11-12T15:20:20.377Z,10.77
2022-11-12T15:23:07.126Z,10.77
2022-11-12T15:26:00.577Z,10.75
2022-11-12T15:29:22.782Z,10.66
2022-11-12T15:32:14.056Z,10.74
2022-11-12T15:34:59.929Z,10.74
2022-11-12T15:37:46.116Z,10.72
2022-11-12T15:40:33.602Z,10.74
2022-11-12T15:43:24.202Z,10.75
2022-11-12T15:46:17.620Z,10.74
2022-11-12T15:49:03.687Z,10.75
2022-11-12T15:51:49.955Z,10.72
2022-11-12T15:54:40.697Z,10.74
2022-11-12T15:57:32.088Z,10.72
2022-11-12T16:00:18.482Z,10.74
2022-11-12T16:03:17.996Z,10.74
2022-11-12T16:06:08.642Z,10.74
2022-11-12T16:08:55.044Z,10.75
2022-11-12T16:11:41.286Z,10.70
2022-11-12T16:14:28.334Z,10.75
2022-11-12T16:17:16.349Z,10.76
2022-11-12T16:20:02.280Z,10.76
2022-11-12T16:22:49.156Z,10.77
2022-11-12T16:25:37.438Z,10.76
2022-11-12T16:28:23.133Z,10.73
2022-11-12T16:31:09.090Z,10.78
2022-11-12T16:33:54.815Z,10.77
2022-11-12T16:36:40.756Z,10.78
2022-11-12T16:39:27.109Z,10.77
2022-11-12T16:42:13.412Z,10.77
2022-11-12T16:44:59.480Z,10.75
2022-11-12T16:47:56.556Z,10.76
2022-11-12T16:50:42.398Z,10.75
2022-11-12T16:53:28.738Z,10.75
2022-11-12T16:56:18.438Z,10.75
2022-11-12T16:59:04.923Z,10.72
2022-11-12T17:01:50.880Z,10.76
2022-11-12T17:04:36.891Z,10.74
2022-11-12T17:07:23.213Z,10.71
2022-11-12T17:10:09.666Z,10.74
2022-11-12T17:12:55.749Z,10.74
2022-11-12T17:15:41.597Z,10.75
2022-11-12T17:18:27.417Z,10.73
2022-11-12T17:21:16.686Z,10.75
2022-11-12T17:24:02.601Z,10.73
2022-11-12T17:26:48.497Z,10.74
2022-11-12T17:29:34.117Z,10.74
2022-11-12T17:32:20.313Z,10.74
2022-11-12T17:35:07.348Z,10.74
2022-11-12T17:37:53.616Z,10.75
2022-11-12T17:40:39.840Z,10.74
2022-11-12T17:43:26.994Z,10.73
2022-11-12T17:46:15.356Z,10.75
2022-11-12T17:49:01.866Z,10.70
2022-11-12T17:51:47.967Z,10.72
2022-11-12T17:54:34.916Z,10.72
2022-11-12T17:57:21.137Z,10.73
2022-11-12T18:00:07.812Z,10.68
2022-11-12T18:02:56.265Z,10.72
2022-11-12T18:05:42.367Z,10.52
2022-11-12T18:08:28.524Z,10.70
2022-11-12T18:11:15.627Z,10.71
2022-11-12T18:14:07.623Z,10.71
2022-11-12T18:16:53.730Z,10.63
2022-11-12T18:19:39.741Z,10.70
2022-11-12T18:22:26.414Z,10.65
2022-11-12T18:25:13.268Z,10.67
2022-11-12T18:27:59.415Z,10.67
2022-11-12T18:30:45.216Z,10.63
2022-11-12T18:33:31.945Z,10.66
2022-11-12T18:36:24.619Z,10.66
2022-11-12T18:39:10.654Z,10.65
2022-11-12T18:41:56.453Z,10.65
2022-11-12T18:44:42.410Z,10.64
2022-11-12T18:47:30.600Z,10.62
2022-11-12T18:50:16.901Z,10.64
2022-11-12T18:53:02.726Z,10.64
2022-11-12T18:55:48.736Z,10.62
2022-11-12T18:58:35.581Z,10.60
2022-11-12T19:01:23.535Z,10.58
2022-11-12T19:04:11.626Z,10.59
2022-11-12T19:06:57.406Z,10.58
2022-11-12T19:09:43.567Z,10.59
2022-11-12T19:12:29.410Z,10.59
2022-11-12T19:15:15.604Z,10.53
2022-11-12T19:18:01.771Z,10.55
2022-11-12T19:20:48.411Z,10.55
2022-11-12T19:23:34.328Z,10.55
2022-11-12T19:26:21.373Z,10.53
2022-11-12T19:29:07.772Z,10.53
2022-11-12T19:31:54.738Z,10.53
2022-11-12T19:34:40.860Z,10.54
2022-11-12T19:37:33.492Z,10.54
2022-11-12T19:40:20.327Z,10.47
2022-11-12T19:43:06.311Z,10.54
2022-11-12T19:45:52.377Z,10.55
2022-11-12T19:48:38.908Z,10.50
2022-11-12T19:51:25.078Z,10.51
2022-11-12T19:54:11.471Z,10.52
2022-11-12T19:56:57.361Z,10.44
2022-11-12T19:59:43.463Z,10.50
2022-11-12T20:02:29.483Z,10.45
2022-11-12T20:05:15.616Z,10.47
2022-11-12T20:08:01.502Z,10.49
2022-11-12T20:10:47.584Z,10.49
2022-11-12T20:13:33.904Z,10.50
2022-11-12T20:16:25.197Z,10.50
2022-11-12T20:19:11.786Z,10.49
2022-11-12T20:21:57.736Z,10.49
2022-11-12T20:24:43.758Z,10.46
2022-11-12T20:27:29.672Z,10.45
2022-11-12T20:30:15.813Z,10.46
2022-11-12T20:33:01.750Z,10.45
2022-11-12T20:35:47.692Z,10.45
2022-11-12T20:38:36.610Z,10.42
2022-11-12T20:41:25.028Z,10.44
2022-11-12T20:44:10.671Z,10.42
2022-11-12T20:46:56.658Z,10.41
2022-11-12T20:49:42.471Z,10.43
2022-11-12T20:52:28.198Z,10.40
2022-11-12T20:55:14.278Z,10.37
2022-11-12T20:58:00.727Z,10.34
2022-11-12T21:00:46.437Z,10.39
2022-11-12T21:03:34.102Z,10.40
2022-11-12T21:06:23.034Z,10.37
2022-11-12T21:09:08.943Z,10.34
2022-11-12T21:11:54.954Z,10.39
2022-11-12T21:14:43.768Z,10.35
2022-11-12T21:17:33.728Z,10.36
2022-11-12T21:20:19.700Z,10.36
2022-11-12T21:23:05.573Z,10.37
2022-11-12T21:25:51.659Z,10.36
2022-11-12T21:28:38.651Z,10.36
2022-11-12T21:31:29.881Z,10.32
2022-11-12T21:34:15.967Z,10.33
2022-11-12T21:37:01.993Z,10.34
2022-11-12T21:39:49.517Z,10.33
2022-11-12T21:42:35.692Z,10.36
2022-11-12T21:45:21.412Z,10.35
2022-11-12T21:48:07.381Z,10.31
2022-11-12T21:50:53.260Z,10.39
2022-11-12T21:53:39.703Z,10.34
2022-11-12T21:56:26.534Z,10.37
2022-11-12T21:59:12.399Z,10.36
2022-11-12T22:01:58.284Z,10.29
2022-11-12T22:04:44.133Z,10.37
2022-11-12T22:07:29.725Z,10.33
2022-11-12T22:10:15.746Z,10.38
2022-11-12T22:16:12.238Z,10.39
2022-11-12T22:18:58.748Z,10.36
2022-11-12T22:21:44.696Z,10.38
2022-11-12T22:24:30.528Z,10.39
2022-11-12T22:27:16.587Z,10.37
2022-11-12T22:30:02.533Z,10.33
2022-11-12T22:32:48.638Z,10.38
2022-11-12T22:35:35.933Z,10.38
2022-11-12T22:38:21.759Z,10.38
2022-11-12T22:41:12.768Z,10.39
2022-11-12T22:44:01.525Z,10.40
2022-11-12T22:46:47.340Z,10.34
2022-11-12T22:49:33.479Z,10.41
2022-11-12T22:52:19.607Z,10.39
2022-11-12T22:55:05.961Z,10.42
2022-11-12T22:57:51.665Z,10.42
2022-11-12T23:00:37.617Z,10.42
2022-11-12T23:03:23.808Z,10.43
2022-11-12T23:06:10.374Z,10.42
2022-11-12T23:09:01.590Z,10.41
2022-11-12T23:11:47.497Z,10.41
2022-11-12T23:14:33.722Z,10.41
2022-11-12T23:17:20.636Z,10.41
2022-11-12T23:20:07.482Z,10.41
2022-11-12T23:22:53.604Z,10.41
2022-11-12T23:25:39.398Z,10.41
2022-11-12T23:28:25.531Z,10.41
2022-11-12T23:31:17.686Z,10.28
2022-11-12T23:34:03.531Z,10.40
2022-11-12T23:36:49.573Z,10.40
2022-11-12T23:39:35.305Z,10.38
2022-11-12T23:42:22.248Z,10.37
2022-11-12T23:45:08.863Z,10.37
2022-11-12T23:47:56.271Z,10.37
2022-11-12T23:50:42.312Z,10.37
2022-11-12T23:53:27.990Z,10.31
2022-11-12T23:56:15.868Z,10.36
2022-11-12T23:59:01.878Z,10.37
